createdAt,value
2018-08-07T00:00:39.710Z,954.16
2018-08-07T00:01:39.708Z,954.1
2018-08-07T00:02:39.705Z,954.07
2018-08-07T00:03:39.702Z,954.1
2018-08-07T00:04:39.700Z,954.03
2018-08-07T00:05:39.698Z,953.99
2018-08-07T00:06:39.692Z,954.06
2018-08-07T00:07:39.690Z,954.05
2018-08-07T00:08:39.688Z,954.03
2018-08-07T00:09:39.686Z,953.97
2018-08-07T00:10:39.681Z,953.99
2018-08-07T00:11:39.680Z,954.03
2018-08-07T00:12:39.678Z,953.99
2018-08-07T00:13:39.676Z,953.97
2018-08-07T00:14:39.671Z,953.98
2018-08-07T00:15:39.669Z,954
2018-08-07T00:16:39.666Z,953.99
2018-08-07T00:17:39.665Z,953.95
2018-08-07T00:18:39.662Z,953.97
2018-08-07T00:19:39.658Z,953.94
2018-08-07T00:20:39.656Z,953.92
2018-08-07T00:21:39.654Z,953.91
2018-08-07T00:22:39.661Z,953.91
2018-08-07T00:23:39.649Z,953.92
2018-08-07T00:24:39.645Z,953.91
2018-08-07T00:25:39.647Z,953.85
2018-08-07T00:26:39.640Z,953.86
2018-08-07T00:27:39.639Z,953.87
2018-08-07T00:28:39.636Z,953.85
2018-08-07T00:29:39.634Z,953.87
2018-08-07T00:30:39.628Z,953.84
2018-08-07T00:31:39.631Z,953.83
2018-08-07T00:32:39.623Z,953.83
2018-08-07T00:33:39.621Z,953.8
2018-08-07T00:34:39.618Z,953.83
2018-08-07T00:35:39.614Z,953.78
2018-08-07T00:36:39.611Z,953.79
2018-08-07T00:37:39.638Z,953.8
2018-08-07T00:38:39.606Z,953.78
2018-08-07T00:39:39.604Z,953.8
2018-08-07T00:40:39.601Z,953.72
2018-08-07T00:41:39.600Z,953.77
2018-08-07T00:42:39.598Z,953.72
2018-08-07T00:43:39.592Z,953.75
2018-08-07T00:44:39.591Z,953.74
2018-08-07T00:45:39.587Z,953.76
2018-08-07T00:46:39.586Z,953.72
2018-08-07T00:47:39.584Z,953.73
2018-08-07T00:48:39.619Z,953.7
2018-08-07T00:49:39.577Z,953.66
2018-08-07T00:50:39.574Z,953.61
2018-08-07T00:51:39.572Z,953.65
2018-08-07T00:52:39.571Z,953.65
2018-08-07T00:53:39.571Z,953.59
2018-08-07T00:54:39.562Z,953.58
2018-08-07T00:55:39.561Z,953.61
2018-08-07T00:56:39.565Z,953.62
2018-08-07T00:57:39.554Z,953.62
2018-08-07T00:58:39.553Z,953.56
2018-08-07T00:59:39.553Z,953.55
2018-08-07T01:00:39.546Z,953.6
2018-08-07T01:01:39.544Z,953.56
2018-08-07T01:02:39.545Z,953.55
2018-08-07T01:03:39.541Z,953.57
2018-08-07T01:04:39.536Z,953.58
2018-08-07T01:05:39.538Z,953.59
2018-08-07T01:06:39.532Z,953.62
2018-08-07T01:07:39.529Z,953.6
2018-08-07T01:08:39.526Z,953.61
2018-08-07T01:09:39.522Z,953.53
2018-08-07T01:10:39.521Z,953.61
2018-08-07T01:11:39.521Z,953.61
2018-08-07T01:12:39.514Z,953.64
2018-08-07T01:13:39.512Z,953.55
2018-08-07T01:14:39.510Z,953.64
2018-08-07T01:15:39.507Z,953.66
2018-08-07T01:16:39.504Z,953.69
2018-08-07T01:17:39.503Z,953.67
2018-08-07T01:18:39.500Z,953.67
2018-08-07T01:19:39.497Z,953.64
2018-08-07T01:20:39.497Z,953.63
2018-08-07T01:21:39.500Z,953.58
2018-08-07T01:22:39.489Z,953.66
2018-08-07T01:23:39.488Z,953.67
2018-08-07T01:24:39.485Z,953.63
2018-08-07T01:25:39.483Z,953.64
2018-08-07T01:26:39.482Z,953.61
2018-08-07T01:27:39.478Z,953.66
2018-08-07T01:28:39.476Z,953.62
2018-08-07T01:29:39.488Z,953.59
2018-08-07T01:30:39.470Z,953.61
2018-08-07T01:31:39.468Z,953.58
2018-08-07T01:32:39.466Z,953.61
2018-08-07T01:33:39.463Z,953.59
2018-08-07T01:34:39.469Z,953.6
2018-08-07T01:35:39.460Z,953.59
2018-08-07T01:36:39.456Z,953.59
2018-08-07T01:37:39.453Z,953.62
2018-08-07T01:38:39.450Z,953.61
2018-08-07T01:39:39.448Z,953.56
2018-08-07T01:40:39.446Z,953.59
2018-08-07T01:41:39.443Z,953.55
2018-08-07T01:42:39.446Z,953.56
2018-08-07T01:43:39.438Z,953.53
2018-08-07T01:44:39.435Z,953.56
2018-08-07T01:45:39.434Z,953.54
2018-08-07T01:46:39.430Z,953.57
2018-08-07T01:47:39.431Z,953.56
2018-08-07T01:48:39.425Z,953.52
2018-08-07T01:49:39.425Z,953.52
2018-08-07T01:50:39.423Z,953.53
2018-08-07T01:51:39.418Z,953.53
2018-08-07T01:52:39.416Z,953.49
2018-08-07T01:53:39.414Z,953.49
2018-08-07T01:54:39.413Z,953.48
2018-08-07T01:55:39.409Z,953.43
2018-08-07T01:56:39.405Z,953.47
2018-08-07T01:57:39.406Z,953.53
2018-08-07T01:58:39.402Z,953.46
2018-08-07T01:59:39.400Z,953.54
2018-08-07T02:00:39.397Z,953.48
2018-08-07T02:01:39.397Z,953.5
2018-08-07T02:02:39.391Z,953.49
2018-08-07T02:03:39.389Z,953.5
2018-08-07T02:04:39.388Z,953.52
2018-08-07T02:05:39.384Z,953.5
2018-08-07T02:06:39.382Z,953.5
2018-08-07T02:07:39.383Z,953.53
2018-08-07T02:08:39.377Z,953.49
2018-08-07T02:09:39.376Z,953.45
2018-08-07T02:10:39.373Z,953.42
2018-08-07T02:11:39.371Z,953.45
2018-08-07T02:12:39.370Z,953.47
2018-08-07T02:13:39.364Z,953.39
2018-08-07T02:14:39.363Z,953.44
2018-08-07T02:15:39.361Z,953.39
2018-08-07T02:16:39.359Z,953.42
2018-08-07T02:17:39.355Z,953.39
2018-08-07T02:18:39.353Z,953.4
2018-08-07T02:19:39.350Z,953.38
2018-08-07T02:20:39.349Z,953.4
2018-08-07T02:21:39.347Z,953.41
2018-08-07T02:22:39.344Z,953.4
2018-08-07T02:23:39.342Z,953.39
2018-08-07T02:24:39.341Z,953.39
2018-08-07T02:25:39.337Z,953.36
2018-08-07T02:26:39.335Z,953.37
2018-08-07T02:27:39.335Z,953.38
2018-08-07T02:28:39.329Z,953.42
2018-08-07T02:29:39.327Z,953.42
2018-08-07T02:30:39.326Z,953.41
2018-08-07T02:31:39.326Z,953.38
2018-08-07T02:32:39.321Z,953.36
2018-08-07T02:33:39.318Z,953.36
2018-08-07T02:34:39.321Z,953.38
2018-08-07T02:35:39.313Z,953.37
2018-08-07T02:36:39.315Z,953.37
2018-08-07T02:37:39.316Z,953.4
2018-08-07T02:38:39.305Z,953.36
2018-08-07T02:39:39.306Z,953.38
2018-08-07T02:40:39.300Z,953.3
2018-08-07T02:41:39.300Z,953.33
2018-08-07T02:42:39.298Z,953.28
2018-08-07T02:43:39.296Z,953.28
2018-08-07T02:44:39.292Z,953.26
2018-08-07T02:45:39.289Z,953.3
2018-08-07T02:46:39.289Z,953.23
2018-08-07T02:47:39.284Z,953.27
2018-08-07T02:48:39.284Z,953.25
2018-08-07T02:49:39.285Z,953.26
2018-08-07T02:50:39.278Z,953.28
2018-08-07T02:51:39.275Z,953.26
2018-08-07T02:52:39.273Z,953.23
2018-08-07T02:53:39.270Z,953.26
2018-08-07T02:54:39.285Z,953.27
2018-08-07T02:55:39.263Z,953.3
2018-08-07T02:56:39.263Z,953.29
2018-08-07T02:57:39.259Z,953.27
2018-08-07T02:58:39.258Z,953.28
2018-08-07T02:59:39.260Z,953.29
2018-08-07T03:00:39.252Z,953.31
2018-08-07T03:01:39.252Z,953.34
2018-08-07T03:02:39.248Z,953.36
2018-08-07T03:03:39.245Z,953.3
2018-08-07T03:04:39.243Z,953.31
2018-08-07T03:05:39.240Z,953.33
2018-08-07T03:06:39.239Z,953.31
2018-08-07T03:07:39.236Z,953.29
2018-08-07T03:08:39.232Z,953.33
2018-08-07T03:09:39.228Z,953.28
2018-08-07T03:10:39.228Z,953.31
2018-08-07T03:11:39.225Z,953.37
2018-08-07T03:12:39.223Z,953.39
2018-08-07T03:13:39.219Z,953.33
2018-08-07T03:14:39.221Z,953.37
2018-08-07T03:15:39.215Z,953.33
2018-08-07T03:16:39.212Z,953.32
2018-08-07T03:17:39.217Z,953.34
2018-08-07T03:18:39.212Z,953.35
2018-08-07T03:19:39.203Z,953.32
2018-08-07T03:20:39.201Z,953.36
2018-08-07T03:21:39.199Z,953.39
2018-08-07T03:22:39.197Z,953.4
2018-08-07T03:23:39.194Z,953.39
2018-08-07T03:24:39.191Z,953.38
2018-08-07T03:25:39.189Z,953.39
2018-08-07T03:26:39.186Z,953.42
2018-08-07T03:27:39.184Z,953.43
2018-08-07T03:28:39.182Z,953.39
2018-08-07T03:29:39.182Z,953.43
2018-08-07T03:30:39.175Z,953.39
2018-08-07T03:31:39.174Z,953.4
2018-08-07T03:32:39.170Z,953.44
2018-08-07T03:33:39.169Z,953.46
2018-08-07T03:34:39.169Z,953.45
2018-08-07T03:35:39.163Z,953.47
2018-08-07T03:36:39.161Z,953.49
2018-08-07T03:37:39.158Z,953.46
2018-08-07T03:38:39.156Z,953.43
2018-08-07T03:39:39.156Z,953.45
2018-08-07T03:40:39.151Z,953.47
2018-08-07T03:41:39.148Z,953.45
2018-08-07T03:42:39.144Z,953.49
2018-08-07T03:43:39.142Z,953.45
2018-08-07T03:44:39.140Z,953.44
2018-08-07T03:45:39.138Z,953.46
2018-08-07T03:46:39.135Z,953.46
2018-08-07T03:47:39.133Z,953.49
2018-08-07T03:48:39.129Z,953.49
2018-08-07T03:49:39.127Z,953.47
2018-08-07T03:50:39.125Z,953.47
2018-08-07T03:51:39.123Z,953.49
2018-08-07T03:52:39.122Z,953.48
2018-08-07T03:53:39.117Z,953.45
2018-08-07T03:54:39.114Z,953.44
2018-08-07T03:55:39.111Z,953.48
2018-08-07T03:56:39.112Z,953.49
2018-08-07T03:57:39.109Z,953.5
2018-08-07T03:58:39.106Z,953.51
2018-08-07T03:59:39.102Z,953.53
2018-08-07T04:00:39.104Z,953.58
2018-08-07T04:01:39.099Z,953.54
2018-08-07T04:02:39.096Z,953.5
2018-08-07T04:03:39.093Z,953.55
2018-08-07T04:04:39.090Z,953.55
2018-08-07T04:05:39.088Z,953.53
2018-08-07T04:06:39.084Z,953.51
2018-08-07T04:07:39.089Z,953.53
2018-08-07T04:08:39.080Z,953.56
2018-08-07T04:09:39.090Z,953.56
2018-08-07T04:10:39.073Z,953.52
2018-08-07T04:11:39.154Z,953.53
2018-08-07T04:12:39.071Z,953.55
2018-08-07T04:13:39.072Z,953.45
2018-08-07T04:14:39.064Z,953.48
2018-08-07T04:15:39.061Z,953.55
2018-08-07T04:16:39.060Z,953.51
2018-08-07T04:17:39.057Z,953.51
2018-08-07T04:18:39.054Z,953.5
2018-08-07T04:19:39.051Z,953.52
2018-08-07T04:20:39.050Z,953.52
2018-08-07T04:21:39.047Z,953.52
2018-08-07T04:22:39.043Z,953.5
2018-08-07T04:23:39.041Z,953.54
2018-08-07T04:24:39.039Z,953.52
2018-08-07T04:25:39.037Z,953.54
2018-08-07T04:26:39.054Z,953.53
2018-08-07T04:27:39.032Z,953.51
2018-08-07T04:28:39.029Z,953.53
2018-08-07T04:29:39.027Z,953.54
2018-08-07T04:30:39.025Z,953.55
2018-08-07T04:31:39.024Z,953.57
2018-08-07T04:32:39.018Z,953.55
2018-08-07T04:33:39.017Z,953.57
2018-08-07T04:34:39.016Z,953.55
2018-08-07T04:35:39.013Z,953.55
2018-08-07T04:36:39.051Z,953.53
2018-08-07T04:37:39.008Z,953.54
2018-08-07T04:38:39.006Z,953.49
2018-08-07T04:39:39.006Z,953.49
2018-08-07T04:40:39.000Z,953.51
2018-08-07T04:41:39.002Z,953.53
2018-08-07T04:42:38.997Z,953.54
2018-08-07T04:43:38.994Z,953.58
2018-08-07T04:44:38.992Z,953.56
2018-08-07T04:45:38.990Z,953.56
2018-08-07T04:46:38.988Z,953.56
2018-08-07T04:47:38.985Z,953.56
2018-08-07T04:48:38.983Z,953.49
2018-08-07T04:49:38.982Z,953.55
2018-08-07T04:50:38.978Z,953.55
2018-08-07T04:51:38.977Z,953.55
2018-08-07T04:52:38.974Z,953.61
2018-08-07T04:53:38.973Z,953.57
2018-08-07T04:54:38.969Z,953.57
2018-08-07T04:55:38.966Z,953.59
2018-08-07T04:56:38.966Z,953.55
2018-08-07T04:57:38.964Z,953.57
2018-08-07T04:58:38.962Z,953.52
2018-08-07T04:59:38.960Z,953.59
2018-08-07T05:00:38.958Z,953.53
2018-08-07T05:01:38.954Z,953.55
2018-08-07T05:02:38.953Z,953.54
2018-08-07T05:03:38.959Z,953.54
2018-08-07T05:04:38.950Z,953.57
2018-08-07T05:05:38.947Z,953.56
2018-08-07T05:06:38.944Z,953.57
2018-08-07T05:07:38.943Z,953.56
2018-08-07T05:08:38.943Z,953.59
2018-08-07T05:09:38.939Z,953.57
2018-08-07T05:10:38.960Z,953.6
2018-08-07T05:11:38.935Z,953.61
2018-08-07T05:12:38.933Z,953.64
2018-08-07T05:13:38.931Z,953.63
2018-08-07T05:14:38.931Z,953.61
2018-08-07T05:15:38.929Z,953.64
2018-08-07T05:16:38.925Z,953.61
2018-08-07T05:17:38.925Z,953.61
2018-08-07T05:18:38.924Z,953.62
2018-08-07T05:19:38.921Z,953.66
2018-08-07T05:20:38.920Z,953.7
2018-08-07T05:21:38.917Z,953.71
2018-08-07T05:22:39.041Z,953.7
2018-08-07T05:23:38.913Z,953.72
2018-08-07T05:24:38.912Z,953.69
2018-08-07T05:25:38.916Z,953.69
2018-08-07T05:26:38.910Z,953.75
2018-08-07T05:27:38.907Z,953.72
2018-08-07T05:28:38.910Z,953.71
2018-08-07T05:29:38.904Z,953.71
2018-08-07T05:30:38.904Z,953.71
2018-08-07T05:31:38.901Z,953.75
2018-08-07T05:32:38.901Z,953.7
2018-08-07T05:33:38.899Z,953.74
2018-08-07T05:34:38.897Z,953.72
2018-08-07T05:35:38.896Z,953.73
2018-08-07T05:36:38.897Z,953.71
2018-08-07T05:37:38.893Z,953.72
2018-08-07T05:38:38.892Z,953.72
2018-08-07T05:39:38.891Z,953.69
2018-08-07T05:40:38.953Z,953.73
2018-08-07T05:41:38.892Z,953.76
2018-08-07T05:42:38.919Z,953.75
2018-08-07T05:43:38.886Z,953.76
2018-08-07T05:44:38.885Z,953.73
2018-08-07T05:45:38.885Z,953.73
2018-08-07T05:46:38.882Z,953.7
2018-08-07T05:47:38.880Z,953.75
2018-08-07T05:48:38.880Z,953.68
2018-08-07T05:49:38.879Z,953.71
2018-08-07T05:50:39.027Z,953.66
2018-08-07T05:51:38.878Z,953.73
2018-08-07T05:52:38.876Z,953.69
2018-08-07T05:53:38.874Z,953.71
2018-08-07T05:54:38.881Z,953.72
2018-08-07T05:55:38.872Z,953.74
2018-08-07T05:56:38.886Z,953.64
2018-08-07T05:57:38.871Z,953.69
2018-08-07T05:58:38.896Z,953.69
2018-08-07T05:59:38.870Z,953.72
2018-08-07T06:00:38.868Z,953.69
2018-08-07T06:01:38.867Z,953.72
2018-08-07T06:02:38.867Z,953.66
2018-08-07T06:03:38.865Z,953.71
2018-08-07T06:04:38.865Z,953.73
2018-08-07T06:05:38.865Z,953.72
2018-08-07T06:06:38.864Z,953.72
2018-08-07T06:07:38.864Z,953.73
2018-08-07T06:08:38.862Z,953.75
2018-08-07T06:09:38.863Z,953.73
2018-08-07T06:10:38.865Z,953.7
2018-08-07T06:11:38.866Z,953.76
2018-08-07T06:12:38.864Z,953.79
2018-08-07T06:13:38.860Z,953.83
2018-08-07T06:14:38.863Z,953.77
2018-08-07T06:15:38.860Z,953.76
2018-08-07T06:16:38.859Z,953.8
2018-08-07T06:17:38.860Z,953.81
2018-08-07T06:18:38.859Z,953.84
2018-08-07T06:19:38.858Z,953.83
2018-08-07T06:20:38.858Z,953.8
2018-08-07T06:21:38.858Z,953.85
2018-08-07T06:22:38.856Z,953.84
2018-08-07T06:23:38.857Z,953.84
2018-08-07T06:24:38.857Z,953.85
2018-08-07T06:25:38.954Z,953.82
2018-08-07T06:26:38.857Z,953.85
2018-08-07T06:27:38.857Z,953.84
2018-08-07T06:28:38.912Z,953.86
2018-08-07T06:29:38.900Z,953.8
2018-08-07T06:30:38.860Z,953.86
2018-08-07T06:31:38.857Z,953.87
2018-08-07T06:32:38.857Z,953.85
2018-08-07T06:33:38.856Z,953.89
2018-08-07T06:34:38.856Z,953.85
2018-08-07T06:35:38.858Z,953.84
2018-08-07T06:36:38.856Z,953.83
2018-08-07T06:37:38.873Z,953.87
2018-08-07T06:38:38.857Z,953.85
2018-08-07T06:39:38.860Z,953.86
2018-08-07T06:40:38.857Z,953.81
2018-08-07T06:41:38.859Z,953.83
2018-08-07T06:42:38.858Z,953.88
2018-08-07T06:43:38.859Z,953.85
2018-08-07T06:44:38.859Z,953.9
2018-08-07T06:45:38.860Z,953.87
2018-08-07T06:46:38.860Z,953.87
2018-08-07T06:47:38.860Z,953.87
2018-08-07T06:48:38.859Z,953.92
2018-08-07T06:49:38.860Z,953.91
2018-08-07T06:50:38.862Z,953.91
2018-08-07T06:51:38.860Z,953.88
2018-08-07T06:52:38.862Z,953.91
2018-08-07T06:53:38.864Z,953.91
2018-08-07T06:54:38.862Z,953.89
2018-08-07T06:55:38.864Z,953.93
2018-08-07T06:56:38.866Z,953.89
2018-08-07T06:57:38.868Z,953.91
2018-08-07T06:58:38.868Z,953.91
2018-08-07T06:59:38.868Z,953.94
2018-08-07T07:00:38.871Z,953.89
2018-08-07T07:01:38.873Z,953.9
2018-08-07T07:02:38.929Z,953.94
2018-08-07T07:03:38.878Z,953.88
2018-08-07T07:04:38.883Z,953.87
2018-08-07T07:05:38.885Z,953.9
2018-08-07T07:06:38.889Z,953.86
2018-08-07T07:07:38.894Z,953.84
2018-08-07T07:08:38.898Z,953.9
2018-08-07T07:09:38.950Z,953.92
2018-08-07T07:10:38.906Z,953.87
2018-08-07T07:11:38.911Z,953.92
2018-08-07T07:12:38.917Z,953.94
2018-08-07T07:13:38.921Z,953.99
2018-08-07T07:14:38.927Z,953.94
2018-08-07T07:15:38.933Z,953.96
2018-08-07T07:16:38.940Z,953.95
2018-08-07T07:17:38.945Z,954.02
2018-08-07T07:18:38.952Z,953.97
2018-08-07T07:19:38.966Z,953.96
2018-08-07T07:20:38.966Z,953.95
2018-08-07T07:21:38.972Z,954.02
2018-08-07T07:22:38.981Z,953.97
2018-08-07T07:23:38.992Z,954.05
2018-08-07T07:24:38.996Z,954.01
2018-08-07T07:25:39.003Z,954.01
2018-08-07T07:26:39.068Z,953.95
2018-08-07T07:27:39.020Z,953.94
2018-08-07T07:28:39.030Z,953.93
2018-08-07T07:29:39.046Z,954.05
2018-08-07T07:30:39.055Z,954.18
2018-08-07T07:31:39.057Z,954.07
2018-08-07T07:32:39.066Z,954.07
2018-08-07T07:33:39.079Z,954.07
2018-08-07T07:34:39.173Z,954.12
2018-08-07T07:35:39.094Z,954.18
2018-08-07T07:36:39.105Z,954.22
2018-08-07T07:37:39.114Z,954.2
2018-08-07T07:38:39.125Z,954.21
2018-08-07T07:39:39.135Z,954.16
2018-08-07T07:40:39.215Z,954.26
2018-08-07T07:41:39.155Z,954.34
2018-08-07T07:42:39.165Z,954.42
2018-08-07T07:43:39.179Z,954.34
2018-08-07T07:44:39.188Z,954.31
2018-08-07T07:45:39.199Z,954.31
2018-08-07T07:46:39.273Z,954.39
2018-08-07T07:47:39.219Z,954.04
2018-08-07T07:48:39.231Z,953.73
2018-08-07T07:49:39.247Z,953.72
2018-08-07T07:50:39.252Z,953.65
2018-08-07T07:51:39.260Z,953.75
2018-08-07T07:52:39.271Z,953.77
2018-08-07T07:53:39.280Z,953.77
2018-08-07T07:54:39.291Z,953.8
2018-08-07T07:55:39.300Z,953.75
2018-08-07T07:56:39.308Z,953.75
2018-08-07T07:57:39.318Z,953.77
2018-08-07T07:58:39.329Z,953.79
2018-08-07T07:59:39.345Z,953.8
2018-08-07T08:00:39.347Z,953.82
2018-08-07T08:01:39.357Z,953.85
2018-08-07T08:02:39.366Z,953.88
2018-08-07T08:03:39.377Z,953.84
2018-08-07T08:04:39.384Z,953.85
2018-08-07T08:05:39.445Z,953.88
2018-08-07T08:06:39.403Z,953.9
2018-08-07T08:07:39.412Z,953.89
2018-08-07T08:08:39.420Z,953.86
2018-08-07T08:09:39.428Z,953.89
2018-08-07T08:10:39.437Z,953.89
2018-08-07T08:11:39.447Z,953.9
2018-08-07T08:12:39.452Z,953.87
2018-08-07T08:13:39.461Z,953.79
2018-08-07T08:14:39.469Z,953.8
2018-08-07T08:15:39.478Z,953.82
2018-08-07T08:16:39.541Z,953.82
2018-08-07T08:17:39.500Z,953.87
2018-08-07T08:18:39.503Z,953.87
2018-08-07T08:19:39.509Z,953.8
2018-08-07T08:20:39.516Z,953.82
2018-08-07T08:21:39.525Z,953.78
2018-08-07T08:22:39.531Z,953.81
2018-08-07T08:23:39.539Z,953.79
2018-08-07T08:24:39.547Z,953.82
2018-08-07T08:25:39.554Z,953.87
2018-08-07T08:26:39.561Z,953.87
2018-08-07T08:27:39.567Z,953.84
2018-08-07T08:28:39.583Z,953.86
2018-08-07T08:29:39.719Z,953.85
2018-08-07T08:30:39.592Z,953.88
2018-08-07T08:31:39.596Z,953.86
2018-08-07T08:32:39.604Z,953.86
2018-08-07T08:33:39.610Z,953.84
2018-08-07T08:34:39.617Z,953.84
2018-08-07T08:35:39.631Z,953.89
2018-08-07T08:36:39.632Z,953.9
2018-08-07T08:37:39.637Z,953.91
2018-08-07T08:38:39.643Z,953.87
2018-08-07T08:39:39.651Z,953.89
2018-08-07T08:40:39.656Z,953.9
2018-08-07T08:41:39.664Z,953.86
2018-08-07T08:42:39.672Z,953.88
2018-08-07T08:43:39.677Z,953.87
2018-08-07T08:44:39.684Z,953.88
2018-08-07T08:45:39.691Z,953.87
2018-08-07T08:46:39.697Z,953.84
2018-08-07T08:47:39.703Z,953.81
2018-08-07T08:48:39.739Z,953.81
2018-08-07T08:49:39.718Z,953.78
2018-08-07T08:50:39.725Z,953.77
2018-08-07T08:51:39.728Z,953.78
2018-08-07T08:52:39.734Z,953.78
2018-08-07T08:53:39.742Z,953.78
2018-08-07T08:54:39.748Z,953.73
2018-08-07T08:55:39.753Z,953.76
2018-08-07T08:56:39.760Z,953.74
2018-08-07T08:57:39.767Z,953.75
2018-08-07T08:58:39.774Z,953.75
2018-08-07T08:59:39.778Z,953.69
2018-08-07T09:00:39.786Z,953.75
2018-08-07T09:01:39.793Z,953.71
2018-08-07T09:02:39.808Z,953.73
2018-08-07T09:03:39.805Z,953.73
2018-08-07T09:04:39.812Z,953.71
2018-08-07T09:05:39.818Z,953.75
2018-08-07T09:06:39.842Z,953.71
2018-08-07T09:07:39.829Z,953.73
2018-08-07T09:08:39.837Z,953.72
2018-08-07T09:09:39.849Z,953.76
2018-08-07T09:10:40.041Z,953.72
2018-08-07T09:11:39.856Z,953.68
2018-08-07T09:12:39.862Z,953.71
2018-08-07T09:13:39.881Z,953.72
2018-08-07T09:14:39.873Z,953.73
2018-08-07T09:15:39.880Z,953.73
2018-08-07T09:16:39.887Z,953.68
2018-08-07T09:17:39.891Z,953.66
2018-08-07T09:18:39.899Z,953.67
2018-08-07T09:19:40.020Z,953.67
2018-08-07T09:20:39.911Z,953.62
2018-08-07T09:21:39.917Z,953.63
2018-08-07T09:22:39.924Z,953.61
2018-08-07T09:23:39.929Z,953.61
2018-08-07T09:24:39.935Z,953.64
2018-08-07T09:25:40.078Z,953.64
2018-08-07T09:26:39.950Z,953.64
2018-08-07T09:27:39.955Z,953.61
2018-08-07T09:28:39.959Z,953.56
2018-08-07T09:29:39.967Z,953.56
2018-08-07T09:30:39.974Z,953.55
2018-08-07T09:31:39.980Z,953.56
2018-08-07T09:32:39.985Z,953.57
2018-08-07T09:33:39.993Z,953.59
2018-08-07T09:34:40.002Z,953.61
2018-08-07T09:35:40.004Z,953.57
2018-08-07T09:36:40.012Z,953.59
2018-08-07T09:37:40.032Z,953.57
2018-08-07T09:38:40.026Z,953.57
2018-08-07T09:39:40.118Z,953.57
2018-08-07T09:40:40.038Z,953.57
2018-08-07T09:41:40.044Z,953.58
2018-08-07T09:42:40.052Z,953.59
2018-08-07T09:43:40.057Z,953.6
2018-08-07T09:44:40.062Z,953.55
2018-08-07T09:45:40.070Z,953.52
2018-08-07T09:46:40.150Z,953.54
2018-08-07T09:47:40.082Z,953.6
2018-08-07T09:48:40.090Z,953.53
2018-08-07T09:49:40.139Z,953.5
2018-08-07T09:50:40.107Z,953.49
2018-08-07T09:51:40.108Z,953.43
2018-08-07T09:52:40.115Z,953.45
2018-08-07T09:53:40.122Z,953.49
2018-08-07T09:54:40.128Z,953.44
2018-08-07T09:55:40.134Z,953.43
2018-08-07T09:56:40.141Z,953.42
2018-08-07T09:57:40.147Z,953.44
2018-08-07T09:58:40.281Z,953.4
2018-08-07T09:59:40.161Z,953.42
2018-08-07T10:00:40.169Z,953.37
2018-08-07T10:01:40.174Z,953.4
2018-08-07T10:02:40.181Z,953.38
2018-08-07T10:03:40.188Z,953.4
2018-08-07T10:04:40.194Z,953.35
2018-08-07T10:05:40.201Z,953.36
2018-08-07T10:06:40.209Z,953.38
2018-08-07T10:07:40.214Z,953.4
2018-08-07T10:08:40.220Z,953.38
2018-08-07T10:09:40.227Z,953.38
2018-08-07T10:10:40.235Z,953.42
2018-08-07T10:11:40.241Z,953.37
2018-08-07T10:12:40.249Z,953.38
2018-08-07T10:13:40.256Z,953.36
2018-08-07T10:14:40.263Z,953.34
2018-08-07T10:15:40.268Z,953.26
2018-08-07T10:16:40.276Z,953.25
2018-08-07T10:17:40.286Z,953.26
2018-08-07T10:18:40.296Z,953.28
2018-08-07T10:19:40.297Z,953.24
2018-08-07T10:20:40.302Z,953.23
2018-08-07T10:21:40.311Z,953.2
2018-08-07T10:22:40.319Z,953.18
2018-08-07T10:23:40.322Z,953.18
2018-08-07T10:24:40.338Z,953.22
2018-08-07T10:25:40.337Z,953.2
2018-08-07T10:26:40.344Z,953.13
2018-08-07T10:27:40.355Z,953.21
2018-08-07T10:28:40.359Z,953.17
2018-08-07T10:29:40.365Z,953.13
2018-08-07T10:30:40.431Z,953.13
2018-08-07T10:31:40.378Z,953.15
2018-08-07T10:32:40.387Z,953.14
2018-08-07T10:33:40.393Z,953.17
2018-08-07T10:34:40.400Z,953.16
2018-08-07T10:35:40.406Z,953.16
2018-08-07T10:36:40.414Z,953.13
2018-08-07T10:37:40.420Z,953.12
2018-08-07T10:38:40.427Z,953.1
2018-08-07T10:39:40.434Z,953.11
2018-08-07T10:40:40.488Z,953.11
2018-08-07T10:41:40.447Z,953.12
2018-08-07T10:42:40.456Z,953.09
2018-08-07T10:43:40.574Z,953.14
2018-08-07T10:44:40.470Z,953.15
2018-08-07T10:45:40.475Z,953.13
2018-08-07T10:46:40.484Z,953.12
2018-08-07T10:47:40.566Z,953.1
2018-08-07T10:48:40.497Z,953.13
2018-08-07T10:49:40.505Z,953.09
2018-08-07T10:50:40.537Z,953.08
2018-08-07T10:51:40.519Z,953.08
2018-08-07T10:52:40.524Z,953.08
2018-08-07T10:53:40.531Z,953.06
2018-08-07T10:54:40.539Z,953.05
2018-08-07T10:55:40.546Z,953.03
2018-08-07T10:56:40.582Z,953.06
2018-08-07T10:57:40.560Z,953.03
2018-08-07T10:58:40.568Z,953.05
2018-08-07T10:59:40.574Z,953.01
2018-08-07T11:00:40.591Z,953
2018-08-07T11:01:40.593Z,953.03
2018-08-07T11:02:40.601Z,952.96
2018-08-07T11:03:40.612Z,952.95
2018-08-07T11:04:40.614Z,952.94
2018-08-07T11:05:40.660Z,952.9
2018-08-07T11:06:40.626Z,952.92
2018-08-07T11:07:40.631Z,952.91
2018-08-07T11:08:40.639Z,952.93
2018-08-07T11:09:40.644Z,952.93
2018-08-07T11:10:40.658Z,952.89
2018-08-07T11:11:40.661Z,952.91
2018-08-07T11:12:40.666Z,952.93
2018-08-07T11:13:40.727Z,952.85
2018-08-07T11:14:40.681Z,952.89
2018-08-07T11:15:40.687Z,952.91
2018-08-07T11:16:40.695Z,952.9
2018-08-07T11:17:40.701Z,952.86
2018-08-07T11:18:40.708Z,952.83
2018-08-07T11:19:40.722Z,952.83
2018-08-07T11:20:40.727Z,952.82
2018-08-07T11:21:40.729Z,952.86
2018-08-07T11:22:40.735Z,952.81
2018-08-07T11:23:40.743Z,952.83
2018-08-07T11:24:40.784Z,952.86
2018-08-07T11:25:40.758Z,952.81
2018-08-07T11:26:40.764Z,952.84
2018-08-07T11:27:40.769Z,952.81
2018-08-07T11:28:40.782Z,952.76
2018-08-07T11:29:40.784Z,952.85
2018-08-07T11:30:40.790Z,952.83
2018-08-07T11:31:40.798Z,952.82
2018-08-07T11:32:40.804Z,952.77
2018-08-07T11:33:40.810Z,952.79
2018-08-07T11:34:40.817Z,952.75
2018-08-07T11:35:40.824Z,952.77
2018-08-07T11:36:40.831Z,952.77
2018-08-07T11:37:40.838Z,952.79
2018-08-07T11:38:40.845Z,952.72
2018-08-07T11:39:40.854Z,952.73
2018-08-07T11:40:40.858Z,952.72
2018-08-07T11:41:40.866Z,952.76
2018-08-07T11:42:40.877Z,952.67
2018-08-07T11:43:40.879Z,952.69
2018-08-07T11:44:40.886Z,952.76
2018-08-07T11:45:40.892Z,952.82
2018-08-07T11:46:40.901Z,952.77
2018-08-07T11:47:40.907Z,952.75
2018-08-07T11:48:40.914Z,952.74
2018-08-07T11:49:40.922Z,952.74
2018-08-07T11:50:40.928Z,952.78
2018-08-07T11:51:40.936Z,952.75
2018-08-07T11:52:40.943Z,952.76
2018-08-07T11:53:40.950Z,952.72
2018-08-07T11:54:40.956Z,952.71
2018-08-07T11:55:40.963Z,952.68
2018-08-07T11:56:40.971Z,952.68
2018-08-07T11:57:40.978Z,952.71
2018-08-07T11:58:40.984Z,952.66
2018-08-07T11:59:40.990Z,952.71
2018-08-07T12:00:41.000Z,952.7
2018-08-07T12:01:41.006Z,952.7
2018-08-07T12:02:41.014Z,952.72
2018-08-07T12:03:41.020Z,952.67
2018-08-07T12:04:41.028Z,952.76
2018-08-07T12:05:41.034Z,952.75
2018-08-07T12:06:41.042Z,952.71
2018-08-07T12:07:41.051Z,952.72
2018-08-07T12:08:41.057Z,952.7
2018-08-07T12:09:41.065Z,952.73
2018-08-07T12:10:41.071Z,952.68
2018-08-07T12:11:41.078Z,952.66
2018-08-07T12:12:41.085Z,952.62
2018-08-07T12:13:41.095Z,952.62
2018-08-07T12:14:41.100Z,952.6
2018-08-07T12:15:41.108Z,952.64
2018-08-07T12:16:41.113Z,952.69
2018-08-07T12:17:41.123Z,952.66
2018-08-07T12:18:41.129Z,952.64
2018-08-07T12:19:41.143Z,952.71
2018-08-07T12:20:41.147Z,952.71
2018-08-07T12:21:41.208Z,952.67
2018-08-07T12:22:41.159Z,952.63
2018-08-07T12:23:41.166Z,952.67
2018-08-07T12:24:41.174Z,952.62
2018-08-07T12:25:41.181Z,952.64
2018-08-07T12:26:41.194Z,952.63
2018-08-07T12:27:41.260Z,952.57
2018-08-07T12:28:41.206Z,952.6
2018-08-07T12:29:41.212Z,952.59
2018-08-07T12:30:41.218Z,952.59